sensor_id;sensor_type;location;lat;lon;timestamp;temperature;humidity
3288;DHT22;3260;52.438;13.502;2022-08-21T04:02:39;19.00;1.00
3288;DHT22;3260;52.438;13.502;2022-08-21T04:05:07;19.00;1.00
3288;DHT22;3260;52.438;13.502;2022-08-21T04:07:36;19.00;1.00
3288;DHT22;3260;52.438;13.502;2022-08-21T04:10:05;19.00;1.00
3288;DHT22;3260;52.438;13.502;2022-08-21T04:15:14;18.90;1.00
3288;DHT22;3260;52.438;13.502;2022-08-21T04:17:44;18.90;1.00
3288;DHT22;3260;52.438;13.502;2022-08-21T04:20:12;18.90;1.00
3288;DHT22;3260;52.438;13.502;2022-08-21T04:22:40;18.90;1.00
3288;DHT22;3260;52.438;13.502;2022-08-21T04:25:09;18.90;1.00
3288;DHT22;3260;52.438;13.502;2022-08-21T04:27:37;19.00;1.00
3288;DHT22;3260;52.438;13.502;2022-08-21T04:30:07;18.90;1.00
3288;DHT22;3260;52.438;13.502;2022-08-21T04:32:37;19.00;1.00
3288;DHT22;3260;52.438;13.502;2022-08-21T04:35:12;19.00;1.00
3288;DHT22;3260;52.438;13.502;2022-08-21T04:37:41;18.90;1.00
3288;DHT22;3260;52.438;13.502;2022-08-21T04:40:11;19.00;1.00
3288;DHT22;3260;52.438;13.502;2022-08-21T04:42:44;19.00;1.00
3288;DHT22;3260;52.438;13.502;2022-08-21T04:45:19;19.00;1.00
3288;DHT22;3260;52.438;13.502;2022-08-21T04:47:50;19.00;1.00
3288;DHT22;3260;52.438;13.502;2022-08-21T04:50:24;19.00;1.00
3288;DHT22;3260;52.438;13.502;2022-08-21T04:52:55;19.10;1.00
3288;DHT22;3260;52.438;13.502;2022-08-21T04:55:24;19.10;1.00
3288;DHT22;3260;52.438;13.502;2022-08-21T04:57:55;19.10;1.00
3288;DHT22;3260;52.438;13.502;2022-08-21T05:00:24;19.20;1.00
3288;DHT22;3260;52.438;13.502;2022-08-21T05:02:54;19.20;1.00
3288;DHT22;3260;52.438;13.502;2022-08-21T05:05:28;19.30;1.00
3288;DHT22;3260;52.438;13.502;2022-08-21T05:07:57;19.30;1.00
3288;DHT22;3260;52.438;13.502;2022-08-21T05:10:28;19.30;1.00
3288;DHT22;3260;52.438;13.502;2022-08-21T05:12:58;19.40;1.00
3288;DHT22;3260;52.438;13.502;2022-08-21T05:15:27;19.40;1.00
3288;DHT22;3260;52.438;13.502;2022-08-21T05:17:57;19.50;1.00
3288;DHT22;3260;52.438;13.502;2022-08-21T05:20:28;19.60;1.00
3288;DHT22;3260;52.438;13.502;2022-08-21T05:22:56;19.60;1.00
3288;DHT22;3260;52.438;13.502;2022-08-21T05:25:25;19.70;1.00
3288;DHT22;3260;52.438;13.502;2022-08-21T05:27:53;19.80;1.00
3288;DHT22;3260;52.438;13.502;2022-08-21T05:30:26;19.80;1.00
3288;DHT22;3260;52.438;13.502;2022-08-21T05:32:56;19.90;1.00
3288;DHT22;3260;52.438;13.502;2022-08-21T05:35:28;20.00;1.00
3288;DHT22;3260;52.438;13.502;2022-08-21T05:37:57;20.10;1.00
3288;DHT22;3260;52.438;13.502;2022-08-21T05:40:27;20.10;1.00
3288;DHT22;3260;52.438;13.502;2022-08-21T05:42:55;20.20;1.00
3288;DHT22;3260;52.438;13.502;2022-08-21T05:45:28;20.20;1.00
3288;DHT22;3260;52.438;13.502;2022-08-21T05:48:11;20.30;1.00
3288;DHT22;3260;52.438;13.502;2022-08-21T05:50:43;20.30;1.00
3288;DHT22;3260;52.438;13.502;2022-08-21T05:53:12;20.40;1.00
3288;DHT22;3260;52.438;13.502;2022-08-21T05:55:41;20.40;1.00
3288;DHT22;3260;52.438;13.502;2022-08-21T05:58:13;20.40;1.00
3288;DHT22;3260;52.438;13.502;2022-08-21T06:00:43;20.50;1.00
3288;DHT22;3260;52.438;13.502;2022-08-21T06:03:13;20.50;1.00
3288;DHT22;3260;52.438;13.502;2022-08-21T06:05:45;20.60;1.00
3288;DHT22;3260;52.438;13.502;2022-08-21T06:08:13;20.70;1.00
3288;DHT22;3260;52.438;13.502;2022-08-21T06:10:42;20.70;1.00
3288;DHT22;3260;52.438;13.502;2022-08-21T06:13:11;20.70;1.00
3288;DHT22;3260;52.438;13.502;2022-08-21T06:15:39;20.70;1.00
3288;DHT22;3260;52.438;13.502;2022-08-21T06:18:08;20.80;1.00
3288;DHT22;3260;52.438;13.502;2022-08-21T06:20:37;20.80;1.00
3288;DHT22;3260;52.438;13.502;2022-08-21T06:23:07;20.90;1.00
3288;DHT22;3260;52.438;13.502;2022-08-21T06:25:36;21.10;1.00
3288;DHT22;3260;52.438;13.502;2022-08-21T06:28:06;21.20;1.00
3288;DHT22;3260;52.438;13.502;2022-08-21T06:30:37;21.20;1.00
3288;DHT22;3260;52.438;13.502;2022-08-21T06:33:06;21.40;1.00
3288;DHT22;3260;52.438;13.502;2022-08-21T06:35:35;21.50;1.00
3288;DHT22;3260;52.438;13.502;2022-08-21T06:38:08;21.40;1.00
3288;DHT22;3260;52.438;13.502;2022-08-21T06:40:37;21.50;1.00
3288;DHT22;3260;52.438;13.502;2022-08-21T06:43:15;21.50;1.00
3288;DHT22;3260;52.438;13.502;2022-08-21T06:45:44;21.60;1.00
3288;DHT22;3260;52.438;13.502;2022-08-21T06:48:12;21.70;1.00
3288;DHT22;3260;52.438;13.502;2022-08-21T06:50:45;21.90;1.00
3288;DHT22;3260;52.438;13.502;2022-08-21T06:53:19;22.00;1.00
3288;DHT22;3260;52.438;13.502;2022-08-21T06:55:48;22.10;1.00
3288;DHT22;3260;52.438;13.502;2022-08-21T06:58:16;22.20;1.00
3288;DHT22;3260;52.438;13.502;2022-08-21T07:00:48;22.30;1.00
3288;DHT22;3260;52.438;13.502;2022-08-21T07:03:25;22.30;1.00
3288;DHT22;3260;52.438;13.502;2022-08-21T07:05:56;22.40;1.00
3288;DHT22;3260;52.438;13.502;2022-08-21T07:08:27;22.50;1.00
3288;DHT22;3260;52.438;13.502;2022-08-21T07:10:58;22.60;1.00
3288;DHT22;3260;52.438;13.502;2022-08-21T07:13:28;22.70;1.00
3288;DHT22;3260;52.438;13.502;2022-08-21T07:15:56;22.80;1.00
3288;DHT22;3260;52.438;13.502;2022-08-21T07:18:30;22.90;1.00
3288;DHT22;3260;52.438;13.502;2022-08-21T07:20:58;23.10;1.00
3288;DHT22;3260;52.438;13.502;2022-08-21T07:23:31;23.20;1.00
3288;DHT22;3260;52.438;13.502;2022-08-21T07:26:04;23.30;1.00
3288;DHT22;3260;52.438;13.502;2022-08-21T07:28:33;23.40;1.00
3288;DHT22;3260;52.438;13.502;2022-08-21T07:31:02;23.50;1.00
3288;DHT22;3260;52.438;13.502;2022-08-21T07:33:33;23.60;1.00
3288;DHT22;3260;52.438;13.502;2022-08-21T07:36:03;23.70;1.00
3288;DHT22;3260;52.438;13.502;2022-08-21T07:38:33;23.70;1.00
3288;DHT22;3260;52.438;13.502;2022-08-21T07:41:03;23.70;1.00
3288;DHT22;3260;52.438;13.502;2022-08-21T07:43:39;23.70;1.00
3288;DHT22;3260;52.438;13.502;2022-08-21T07:46:12;23.70;1.00
3288;DHT22;3260;52.438;13.502;2022-08-21T07:48:41;23.70;1.00
3288;DHT22;3260;52.438;13.502;2022-08-21T07:51:12;23.70;1.00
3288;DHT22;3260;52.438;13.502;2022-08-21T07:53:47;23.70;1.00
3288;DHT22;3260;52.438;13.502;2022-08-21T07:56:18;23.80;1.00
3288;DHT22;3260;52.438;13.502;2022-08-21T07:58:47;24.00;1.00
3288;DHT22;3260;52.438;13.502;2022-08-21T08:01:15;24.10;1.00
3288;DHT22;3260;52.438;13.502;2022-08-21T08:03:45;24.20;1.00
3288;DHT22;3260;52.438;13.502;2022-08-21T08:06:14;24.20;1.00
3288;DHT22;3260;52.438;13.502;2022-08-21T08:08:45;24.30;1.00
3288;DHT22;3260;52.438;13.502;2022-08-21T08:11:13;24.50;1.00
3288;DHT22;3260;52.438;13.502;2022-08-21T08:13:44;24.60;1.00
3288;DHT22;3260;52.438;13.502;2022-08-21T08:16:15;24.70;1.00
3288;DHT22;3260;52.438;13.502;2022-08-21T08:18:44;24.80;1.00
3288;DHT22;3260;52.438;13.502;2022-08-21T08:21:12;24.90;1.00
3288;DHT22;3260;52.438;13.502;2022-08-21T08:23:41;25.00;1.00
3288;DHT22;3260;52.438;13.502;2022-08-21T08:26:12;25.10;1.00
3288;DHT22;3260;52.438;13.502;2022-08-21T08:28:42;25.10;1.00
3288;DHT22;3260;52.438;13.502;2022-08-21T08:31:10;25.20;1.00
3288;DHT22;3260;52.438;13.502;2022-08-21T08:33:38;25.30;1.00
3288;DHT22;3260;52.438;13.502;2022-08-21T08:36:13;25.40;1.00
3288;DHT22;3260;52.438;13.502;2022-08-21T08:38:42;25.60;1.00
3288;DHT22;3260;52.438;13.502;2022-08-21T08:41:14;25.80;1.00
3288;DHT22;3260;52.438;13.502;2022-08-21T08:43:49;25.90;1.00
3288;DHT22;3260;52.438;13.502;2022-08-21T08:46:24;25.90;1.00
3288;DHT22;3260;52.438;13.502;2022-08-21T08:49:03;26.10;1.00
3288;DHT22;3260;52.438;13.502;2022-08-21T08:51:40;26.20;1.00
3288;DHT22;3260;52.438;13.502;2022-08-21T08:54:15;26.30;1.00
3288;DHT22;3260;52.438;13.502;2022-08-21T08:56:48;26.30;1.00
3288;DHT22;3260;52.438;13.502;2022-08-21T08:59:22;26.30;1.00
3288;DHT22;3260;52.438;13.502;2022-08-21T09:01:54;26.40;1.00
3288;DHT22;3260;52.438;13.502;2022-08-21T09:04:24;26.40;1.00
3288;DHT22;3260;52.438;13.502;2022-08-21T09:07:05;26.60;1.00
3288;DHT22;3260;52.438;13.502;2022-08-21T09:09:51;26.70;1.00
3288;DHT22;3260;52.438;13.502;2022-08-21T09:12:39;26.90;1.00
3288;DHT22;3260;52.438;13.502;2022-08-21T09:15:24;27.10;1.00
3288;DHT22;3260;52.438;13.502;2022-08-21T09:18:23;27.20;1.00
3288;DHT22;3260;52.438;13.502;2022-08-21T09:21:08;27.20;1.00
3288;DHT22;3260;52.438;13.502;2022-08-21T09:23:50;27.40;1.00
3288;DHT22;3260;52.438;13.502;2022-08-21T09:26:30;27.60;1.00
3288;DHT22;3260;52.438;13.502;2022-08-21T09:29:04;27.70;1.00
3288;DHT22;3260;52.438;13.502;2022-08-21T09:31:35;27.80;1.00
3288;DHT22;3260;52.438;13.502;2022-08-21T09:34:06;27.90;1.00
3288;DHT22;3260;52.438;13.502;2022-08-21T09:36:40;28.00;1.00
3288;DHT22;3260;52.438;13.502;2022-08-21T09:39:13;28.00;1.00
3288;DHT22;3260;52.438;13.502;2022-08-21T09:41:56;28.10;1.00
3288;DHT22;3260;52.438;13.502;2022-08-21T09:44:30;28.10;1.00
3288;DHT22;3260;52.438;13.502;2022-08-21T09:47:00;28.20;1.00
3288;DHT22;3260;52.438;13.502;2022-08-21T09:49:29;28.30;1.00
3288;DHT22;3260;52.438;13.502;2022-08-21T09:51:59;28.30;1.00
3288;DHT22;3260;52.438;13.502;2022-08-21T09:54:31;28.40;1.00
3288;DHT22;3260;52.438;13.502;2022-08-21T09:57:14;28.30;1.00
3288;DHT22;3260;52.438;13.502;2022-08-21T10:00:19;28.20;1.00
3288;DHT22;3260;52.438;13.502;2022-08-21T10:02:52;28.30;1.00
3288;DHT22;3260;52.438;13.502;2022-08-21T10:05:23;28.30;1.00
3288;DHT22;3260;52.438;13.502;2022-08-21T10:07:53;28.40;1.00
3288;DHT22;3260;52.438;13.502;2022-08-21T10:10:23;28.60;1.00
3288;DHT22;3260;52.438;13.502;2022-08-21T10:13:01;28.80;1.00
3288;DHT22;3260;52.438;13.502;2022-08-21T10:15:48;28.90;1.00
3288;DHT22;3260;52.438;13.502;2022-08-21T10:18:29;29.00;1.00
3288;DHT22;3260;52.438;13.502;2022-08-21T10:21:10;29.20;1.00
3288;DHT22;3260;52.438;13.502;2022-08-21T10:24:02;29.40;1.00
3288;DHT22;3260;52.438;13.502;2022-08-21T10:26:45;29.60;1.00
3288;DHT22;3260;52.438;13.502;2022-08-21T10:29:37;29.60;1.00
3288;DHT22;3260;52.438;13.502;2022-08-21T10:32:22;29.70;1.00
3288;DHT22;3260;52.438;13.502;2022-08-21T10:35:08;29.80;1.00
3288;DHT22;3260;52.438;13.502;2022-08-21T10:37:52;29.90;1.00
3288;DHT22;3260;52.438;13.502;2022-08-21T10:40:38;29.90;1.00
3288;DHT22;3260;52.438;13.502;2022-08-21T10:43:16;30.00;1.00
3288;DHT22;3260;52.438;13.502;2022-08-21T10:46:05;30.00;1.00
3288;DHT22;3260;52.438;13.502;2022-08-21T10:48:47;30.00;1.00
3288;DHT22;3260;52.438;13.502;2022-08-21T10:51:28;30.00;1.00
3288;DHT22;3260;52.438;13.502;2022-08-21T10:54:06;30.10;1.00
3288;DHT22;3260;52.438;13.502;2022-08-21T10:56:52;30.20;1.00
3288;DHT22;3260;52.438;13.502;2022-08-21T10:59:32;30.30;1.00
3288;DHT22;3260;52.438;13.502;2022-08-21T11:02:13;30.50;1.00
3288;DHT22;3260;52.438;13.502;2022-08-21T11:04:52;30.60;1.00
3288;DHT22;3260;52.438;13.502;2022-08-21T11:07:28;30.70;1.00
3288;DHT22;3260;52.438;13.502;2022-08-21T11:10:03;30.70;1.00
3288;DHT22;3260;52.438;13.502;2022-08-21T11:12:41;30.50;1.00
3288;DHT22;3260;52.438;13.502;2022-08-21T11:15:26;30.70;1.00
3288;DHT22;3260;52.438;13.502;2022-08-21T11:18:10;30.80;1.00
3288;DHT22;3260;52.438;13.502;2022-08-21T11:20:49;30.80;1.00
3288;DHT22;3260;52.438;13.502;2022-08-21T11:23:28;31.00;1.00
3288;DHT22;3260;52.438;13.502;2022-08-21T11:26:09;31.10;1.00
3288;DHT22;3260;52.438;13.502;2022-08-21T11:28:47;31.10;1.00
3288;DHT22;3260;52.438;13.502;2022-08-21T11:31:37;31.30;1.00
3288;DHT22;3260;52.438;13.502;2022-08-21T11:34:20;31.50;1.00
3288;DHT22;3260;52.438;13.502;2022-08-21T11:37:04;31.70;1.00
3288;DHT22;3260;52.438;13.502;2022-08-21T11:39:41;31.90;1.00
3288;DHT22;3260;52.438;13.502;2022-08-21T11:42:24;32.10;1.00
3288;DHT22;3260;52.438;13.502;2022-08-21T11:45:09;32.40;1.00
3288;DHT22;3260;52.438;13.502;2022-08-21T11:47:54;32.80;1.00
3288;DHT22;3260;52.438;13.502;2022-08-21T11:50:27;33.50;1.00
3288;DHT22;3260;52.438;13.502;2022-08-21T11:53:08;34.30;1.00
3288;DHT22;3260;52.438;13.502;2022-08-21T11:55:43;35.00;1.00
3288;DHT22;3260;52.438;13.502;2022-08-21T11:58:20;35.90;1.00
3288;DHT22;3260;52.438;13.502;2022-08-21T12:00:57;36.50;1.00
3288;DHT22;3260;52.438;13.502;2022-08-21T12:03:33;36.80;1.00
3288;DHT22;3260;52.438;13.502;2022-08-21T12:06:08;37.00;1.00
3288;DHT22;3260;52.438;13.502;2022-08-21T12:08:41;37.20;1.00
3288;DHT22;3260;52.438;13.502;2022-08-21T12:11:24;37.70;1.00
3288;DHT22;3260;52.438;13.502;2022-08-21T12:13:59;38.10;1.00
3288;DHT22;3260;52.438;13.502;2022-08-21T12:16:41;38.50;1.00
3288;DHT22;3260;52.438;13.502;2022-08-21T12:19:13;39.40;1.00
3288;DHT22;3260;52.438;13.502;2022-08-21T12:21:59;40.10;1.00
3288;DHT22;3260;52.438;13.502;2022-08-21T12:24:39;40.60;1.00
3288;DHT22;3260;52.438;13.502;2022-08-21T12:27:26;41.50;1.00
3288;DHT22;3260;52.438;13.502;2022-08-21T12:29:59;42.00;1.00
3288;DHT22;3260;52.438;13.502;2022-08-21T12:32:31;42.50;1.00
3288;DHT22;3260;52.438;13.502;2022-08-21T12:35:15;42.90;1.00
3288;DHT22;3260;52.438;13.502;2022-08-21T12:37:56;43.20;1.00
3288;DHT22;3260;52.438;13.502;2022-08-21T12:40:36;43.70;1.00
3288;DHT22;3260;52.438;13.502;2022-08-21T12:43:13;44.30;1.00
3288;DHT22;3260;52.438;13.502;2022-08-21T12:45:46;44.70;1.00
3288;DHT22;3260;52.438;13.502;2022-08-21T12:48:20;45.00;1.00
3288;DHT22;3260;52.438;13.502;2022-08-21T12:50:53;45.80;1.00
3288;DHT22;3260;52.438;13.502;2022-08-21T12:53:30;46.50;1.00
3288;DHT22;3260;52.438;13.502;2022-08-21T12:56:09;46.30;1.00
3288;DHT22;3260;52.438;13.502;2022-08-21T12:58:40;46.60;1.00
3288;DHT22;3260;52.438;13.502;2022-08-21T13:01:17;47.10;1.00
3288;DHT22;3260;52.438;13.502;2022-08-21T13:03:50;46.90;1.00
3288;DHT22;3260;52.438;13.502;2022-08-21T13:06:40;47.00;1.00
3288;DHT22;3260;52.438;13.502;2022-08-21T13:09:11;46.80;1.00
3288;DHT22;3260;52.438;13.502;2022-08-21T13:11:45;46.70;1.00
3288;DHT22;3260;52.438;13.502;2022-08-21T13:14:23;47.00;1.00
3288;DHT22;3260;52.438;13.502;2022-08-21T13:16:57;46.80;1.00
3288;DHT22;3260;52.438;13.502;2022-08-21T13:19:27;46.10;1.00
3288;DHT22;3260;52.438;13.502;2022-08-21T13:21:56;46.20;1.00
3288;DHT22;3260;52.438;13.502;2022-08-21T13:24:26;46.80;1.00
3288;DHT22;3260;52.438;13.502;2022-08-21T13:27:22;46.50;1.00
3288;DHT22;3260;52.438;13.502;2022-08-21T13:30:09;46.60;1.00
3288;DHT22;3260;52.438;13.502;2022-08-21T13:32:43;46.90;1.00
3288;DHT22;3260;52.438;13.502;2022-08-21T13:35:16;48.40;1.00
3288;DHT22;3260;52.438;13.502;2022-08-21T13:37:48;49.70;1.00
3288;DHT22;3260;52.438;13.502;2022-08-21T13:40:23;50.70;1.00
3288;DHT22;3260;52.438;13.502;2022-08-21T13:42:54;51.10;1.00
3288;DHT22;3260;52.438;13.502;2022-08-21T13:45:25;51.80;1.00
3288;DHT22;3260;52.438;13.502;2022-08-21T13:47:59;51.40;1.00
3288;DHT22;3260;52.438;13.502;2022-08-21T13:50:34;50.50;1.00
3288;DHT22;3260;52.438;13.502;2022-08-21T13:53:07;50.00;1.00
3288;DHT22;3260;52.438;13.502;2022-08-21T13:55:48;50.10;1.00
3288;DHT22;3260;52.438;13.502;2022-08-21T13:58:26;50.10;1.00
3288;DHT22;3260;52.438;13.502;2022-08-21T14:00:56;50.20;1.00
3288;DHT22;3260;52.438;13.502;2022-08-21T14:03:34;50.30;1.00
3288;DHT22;3260;52.438;13.502;2022-08-21T14:06:12;50.60;1.00
3288;DHT22;3260;52.438;13.502;2022-08-21T14:08:47;50.70;1.00
3288;DHT22;3260;52.438;13.502;2022-08-21T14:11:18;50.40;1.00
3288;DHT22;3260;52.438;13.502;2022-08-21T14:13:55;48.60;1.00
3288;DHT22;3260;52.438;13.502;2022-08-21T14:16:27;46.40;1.00
3288;DHT22;3260;52.438;13.502;2022-08-21T14:19:15;44.40;1.00
3288;DHT22;3260;52.438;13.502;2022-08-21T14:21:47;42.70;1.00
3288;DHT22;3260;52.438;13.502;2022-08-21T14:24:26;41.20;1.00
3288;DHT22;3260;52.438;13.502;2022-08-21T14:26:58;40.20;1.00
3288;DHT22;3260;52.438;13.502;2022-08-21T14:29:36;39.70;1.00
3288;DHT22;3260;52.438;13.502;2022-08-21T14:32:14;39.00;1.00
3288;DHT22;3260;52.438;13.502;2022-08-21T14:34:47;38.20;1.00
3288;DHT22;3260;52.438;13.502;2022-08-21T14:37:15;37.60;1.00
3288;DHT22;3260;52.438;13.502;2022-08-21T14:39:43;36.70;1.00
3288;DHT22;3260;52.438;13.502;2022-08-21T14:42:12;36.20;1.00
3288;DHT22;3260;52.438;13.502;2022-08-21T14:44:42;35.90;1.00
3288;DHT22;3260;52.438;13.502;2022-08-21T14:47:10;35.70;1.00
3288;DHT22;3260;52.438;13.502;2022-08-21T14:49:39;36.00;1.00
3288;DHT22;3260;52.438;13.502;2022-08-21T14:52:07;36.40;1.00
3288;DHT22;3260;52.438;13.502;2022-08-21T14:54:35;36.60;1.00
3288;DHT22;3260;52.438;13.502;2022-08-21T14:57:06;36.50;1.00
3288;DHT22;3260;52.438;13.502;2022-08-21T14:59:36;36.30;1.00
3288;DHT22;3260;52.438;13.502;2022-08-21T15:02:07;36.30;1.00
3288;DHT22;3260;52.438;13.502;2022-08-21T15:04:36;36.20;1.00
3288;DHT22;3260;52.438;13.502;2022-08-21T15:07:04;36.30;1.00
3288;DHT22;3260;52.438;13.502;2022-08-21T15:09:32;36.40;1.00
3288;DHT22;3260;52.438;13.502;2022-08-21T15:12:02;36.20;1.00
3288;DHT22;3260;52.438;13.502;2022-08-21T15:14:33;36.20;1.00
3288;DHT22;3260;52.438;13.502;2022-08-21T15:17:07;36.10;1.00
3288;DHT22;3260;52.438;13.502;2022-08-21T15:19:37;35.80;1.00
3288;DHT22;3260;52.438;13.502;2022-08-21T15:22:06;35.50;1.00
3288;DHT22;3260;52.438;13.502;2022-08-21T15:24:44;35.20;1.00
3288;DHT22;3260;52.438;13.502;2022-08-21T15:27:13;34.90;1.00
3288;DHT22;3260;52.438;13.502;2022-08-21T15:29:44;34.40;1.00
3288;DHT22;3260;52.438;13.502;2022-08-21T15:32:20;33.90;1.00
3288;DHT22;3260;52.438;13.502;2022-08-21T15:34:50;33.10;1.00
3288;DHT22;3260;52.438;13.502;2022-08-21T15:37:19;32.70;1.00
3288;DHT22;3260;52.438;13.502;2022-08-21T15:39:49;32.20;1.00
3288;DHT22;3260;52.438;13.502;2022-08-21T15:42:20;31.80;1.00
3288;DHT22;3260;52.438;13.502;2022-08-21T15:44:50;31.40;1.00
3288;DHT22;3260;52.438;13.502;2022-08-21T15:47:22;31.20;1.00
3288;DHT22;3260;52.438;13.502;2022-08-21T15:49:53;30.80;1.00
3288;DHT22;3260;52.438;13.502;2022-08-21T15:52:22;30.50;1.00
3288;DHT22;3260;52.438;13.502;2022-08-21T15:54:51;30.20;1.00
3288;DHT22;3260;52.438;13.502;2022-08-21T15:57:22;29.90;1.00
3288;DHT22;3260;52.438;13.502;2022-08-21T15:59:55;29.60;1.00
3288;DHT22;3260;52.438;13.502;2022-08-21T16:02:28;29.40;1.00
3288;DHT22;3260;52.438;13.502;2022-08-21T16:04:59;29.10;1.00
3288;DHT22;3260;52.438;13.502;2022-08-21T16:07:27;28.90;1.00
3288;DHT22;3260;52.438;13.502;2022-08-21T16:09:55;28.70;1.00
3288;DHT22;3260;52.438;13.502;2022-08-21T16:12:27;28.50;1.00
3288;DHT22;3260;52.438;13.502;2022-08-21T16:14:59;28.40;1.00
3288;DHT22;3260;52.438;13.502;2022-08-21T16:17:33;28.20;1.00
3288;DHT22;3260;52.438;13.502;2022-08-21T16:20:05;28.10;1.00
3288;DHT22;3260;52.438;13.502;2022-08-21T16:22:36;27.90;1.00
3288;DHT22;3260;52.438;13.502;2022-08-21T16:25:11;27.70;1.00
3288;DHT22;3260;52.438;13.502;2022-08-21T16:27:41;27.50;1.00
3288;DHT22;3260;52.438;13.502;2022-08-21T16:30:12;27.40;1.00
3288;DHT22;3260;52.438;13.502;2022-08-21T16:32:43;27.20;1.00
3288;DHT22;3260;52.438;13.502;2022-08-21T16:35:15;27.10;1.00
3288;DHT22;3260;52.438;13.502;2022-08-21T16:37:45;26.90;1.00
3288;DHT22;3260;52.438;13.502;2022-08-21T16:40:18;26.80;1.00
3288;DHT22;3260;52.438;13.502;2022-08-21T16:42:49;26.70;1.00
3288;DHT22;3260;52.438;13.502;2022-08-21T16:45:19;26.60;1.00
3288;DHT22;3260;52.438;13.502;2022-08-21T16:47:49;26.50;1.00
3288;DHT22;3260;52.438;13.502;2022-08-21T16:50:20;26.40;1.00
3288;DHT22;3260;52.438;13.502;2022-08-21T16:52:51;26.40;1.00
3288;DHT22;3260;52.438;13.502;2022-08-21T16:55:20;26.30;1.00
3288;DHT22;3260;52.438;13.502;2022-08-21T16:57:51;26.20;1.00
3288;DHT22;3260;52.438;13.502;2022-08-21T17:00:20;26.10;1.00
3288;DHT22;3260;52.438;13.502;2022-08-21T17:02:53;26.10;1.00
3288;DHT22;3260;52.438;13.502;2022-08-21T17:05:22;26.10;1.00
3288;DHT22;3260;52.438;13.502;2022-08-21T17:07:50;26.10;1.00
3288;DHT22;3260;52.438;13.502;2022-08-21T17:10:18;26.00;1.00
3288;DHT22;3260;52.438;13.502;2022-08-21T17:12:50;25.90;1.00
3288;DHT22;3260;52.438;13.502;2022-08-21T17:15:31;25.90;1.00
3288;DHT22;3260;52.438;13.502;2022-08-21T17:18:07;25.80;1.00
3288;DHT22;3260;52.438;13.502;2022-08-21T17:20:39;25.70;1.00
3288;DHT22;3260;52.438;13.502;2022-08-21T17:23:07;25.60;1.00
3288;DHT22;3260;52.438;13.502;2022-08-21T17:25:37;25.50;1.00
3288;DHT22;3260;52.438;13.502;2022-08-21T17:28:08;25.40;1.00
3288;DHT22;3260;52.438;13.502;2022-08-21T17:30:40;25.40;1.00
3288;DHT22;3260;52.438;13.502;2022-08-21T17:33:14;25.30;1.00
3288;DHT22;3260;52.438;13.502;2022-08-21T17:35:44;25.20;1.00
3288;DHT22;3260;52.438;13.502;2022-08-21T17:38:13;25.30;1.00
3288;DHT22;3260;52.438;13.502;2022-08-21T17:40:42;25.10;1.00
3288;DHT22;3260;52.438;13.502;2022-08-21T17:43:11;25.10;1.00
3288;DHT22;3260;52.438;13.502;2022-08-21T17:45:41;25.00;1.00
3288;DHT22;3260;52.438;13.502;2022-08-21T17:48:10;25.00;1.00
3288;DHT22;3260;52.438;13.502;2022-08-21T17:50:39;24.90;1.00
3288;DHT22;3260;52.438;13.502;2022-08-21T17:53:08;24.80;1.00
3288;DHT22;3260;52.438;13.502;2022-08-21T17:55:36;24.60;1.00
3288;DHT22;3260;52.438;13.502;2022-08-21T17:58:04;24.50;1.00
3288;DHT22;3260;52.438;13.502;2022-08-21T18:00:35;24.40;1.00
3288;DHT22;3260;52.438;13.502;2022-08-21T18:03:06;24.20;1.00
3288;DHT22;3260;52.438;13.502;2022-08-21T18:05:41;24.10;1.00
3288;DHT22;3260;52.438;13.502;2022-08-21T18:08:10;23.90;1.00
3288;DHT22;3260;52.438;13.502;2022-08-21T18:10:41;23.70;1.00
3288;DHT22;3260;52.438;13.502;2022-08-21T18:13:14;23.60;1.00
3288;DHT22;3260;52.438;13.502;2022-08-21T18:15:48;23.40;1.00
3288;DHT22;3260;52.438;13.502;2022-08-21T18:18:18;23.20;1.00
3288;DHT22;3260;52.438;13.502;2022-08-21T18:20:49;23.00;1.00
3288;DHT22;3260;52.438;13.502;2022-08-21T18:23:18;22.90;1.00
3288;DHT22;3260;52.438;13.502;2022-08-21T18:26:06;22.70;1.00
3288;DHT22;3260;52.438;13.502;2022-08-21T18:28:36;22.50;1.00
3288;DHT22;3260;52.438;13.502;2022-08-21T18:31:06;22.30;1.00
3288;DHT22;3260;52.438;13.502;2022-08-21T18:33:36;22.10;1.00
3288;DHT22;3260;52.438;13.502;2022-08-21T18:36:26;22.00;1.00
3288;DHT22;3260;52.438;13.502;2022-08-21T18:38:55;21.80;1.00
3288;DHT22;3260;52.438;13.502;2022-08-21T18:41:44;21.60;1.00
3288;DHT22;3260;52.438;13.502;2022-08-21T18:44:14;21.50;1.00
3288;DHT22;3260;52.438;13.502;2022-08-21T18:46:48;21.30;1.00
3288;DHT22;3260;52.438;13.502;2022-08-21T18:49:18;21.20;1.00
3288;DHT22;3260;52.438;13.502;2022-08-21T18:51:49;21.00;1.00
3288;DHT22;3260;52.438;13.502;2022-08-21T18:54:17;20.90;1.00
3288;DHT22;3260;52.438;13.502;2022-08-21T18:56:46;20.80;1.00
3288;DHT22;3260;52.438;13.502;2022-08-21T18:59:20;20.70;1.00
3288;DHT22;3260;52.438;13.502;2022-08-21T19:01:50;20.60;1.00
3288;DHT22;3260;52.438;13.502;2022-08-21T19:04:19;20.50;1.00
3288;DHT22;3260;52.438;13.502;2022-08-21T19:07:08;20.40;1.00
3288;DHT22;3260;52.438;13.502;2022-08-21T19:09:40;20.30;1.00
3288;DHT22;3260;52.438;13.502;2022-08-21T19:12:27;20.20;1.00
3288;DHT22;3260;52.438;13.502;2022-08-21T19:14:57;20.10;1.00
3288;DHT22;3260;52.438;13.502;2022-08-21T19:17:26;20.00;1.00
3288;DHT22;3260;52.438;13.502;2022-08-21T19:19:56;20.00;1.00
3288;DHT22;3260;52.438;13.502;2022-08-21T19:22:31;19.90;1.00
3288;DHT22;3260;52.438;13.502;2022-08-21T19:24:59;19.80;1.00
3288;DHT22;3260;52.438;13.502;2022-08-21T19:27:27;19.80;1.00
3288;DHT22;3260;52.438;13.502;2022-08-21T19:29:56;19.70;1.00
3288;DHT22;3260;52.438;13.502;2022-08-21T19:32:25;19.70;1.00
3288;DHT22;3260;52.438;13.502;2022-08-21T19:34:53;19.60;1.00
3288;DHT22;3260;52.438;13.502;2022-08-21T19:37:23;19.60;1.00
3288;DHT22;3260;52.438;13.502;2022-08-21T19:39:54;19.50;1.00
3288;DHT22;3260;52.438;13.502;2022-08-21T19:42:22;19.50;1.00
3288;DHT22;3260;52.438;13.502;2022-08-21T19:44:56;19.40;1.00
3288;DHT22;3260;52.438;13.502;2022-08-21T19:47:25;19.40;1.00
3288;DHT22;3260;52.438;13.502;2022-08-21T19:49:57;19.40;1.00
3288;DHT22;3260;52.438;13.502;2022-08-21T19:52:29;19.30;1.00
3288;DHT22;3260;52.438;13.502;2022-08-21T19:55:03;19.30;1.00
3288;DHT22;3260;52.438;13.502;2022-08-21T19:57:36;19.20;1.00
3288;DHT22;3260;52.438;13.502;2022-08-21T20:00:06;19.20;1.00
3288;DHT22;3260;52.438;13.502;2022-08-21T20:02:36;19.10;1.00
3288;DHT22;3260;52.438;13.502;2022-08-21T20:05:14;19.10;1.00
3288;DHT22;3260;52.438;13.502;2022-08-21T20:07:43;19.00;1.00
3288;DHT22;3260;52.438;13.502;2022-08-21T20:10:13;19.00;1.00
3288;DHT22;3260;52.438;13.502;2022-08-21T20:12:42;18.90;1.00
3288;DHT22;3260;52.438;13.502;2022-08-21T20:15:21;18.90;1.00
3288;DHT22;3260;52.438;13.502;2022-08-21T20:17:50;18.80;1.00
3288;DHT22;3260;52.438;13.502;2022-08-21T20:20:21;18.80;1.00
3288;DHT22;3260;52.438;13.502;2022-08-21T20:22:57;18.70;1.00
3288;DHT22;3260;52.438;13.502;2022-08-21T20:25:28;18.70;1.00
3288;DHT22;3260;52.438;13.502;2022-08-21T20:28:00;18.70;1.00
3288;DHT22;3260;52.438;13.502;2022-08-21T20:30:29;18.60;1.00
3288;DHT22;3260;52.438;13.502;2022-08-21T20:32:58;18.60;1.00
3288;DHT22;3260;52.438;13.502;2022-08-21T20:35:26;18.50;1.00
3288;DHT22;3260;52.438;13.502;2022-08-21T20:37:54;18.50;1.00
3288;DHT22;3260;52.438;13.502;2022-08-21T20:40:26;18.50;1.00
3288;DHT22;3260;52.438;13.502;2022-08-21T20:42:59;18.40;1.00
3288;DHT22;3260;52.438;13.502;2022-08-21T20:45:31;18.40;1.00